• Join FlightAware (Why Join?)
  • Login
  • US Flag 
02:11AM EST


 

Airport Tracker/Info


-or-


 

Live Flight TrackerFlight Track Log ✈ UAL1006 ✈ 10-Jun-2013 ✈ SKBO / BOG - KIAH

Flight Track Log - Related Links

Times and Time Zones

All times are in EDT time to prevent confusion due to time zone crossing. See the UAL1006 flight status page for this flight to view local times or setup timezone preferences in your user account.

Time Position Orientation Groundspeed Altitude Reporting Facility
EDT Latitude Longitude Course Direction KTS MPH feet Rate Location/Type
01:36AM 5.7077 -74.8900 324° Northwest  Level FlightAware Approximate
01:37AM 5.8194 -74.9727 324° Northwest  Level FlightAware Approximate
01:38AM 5.9311 -75.0555 324° Northwest  Level FlightAware Approximate
01:39AM 6.0428 -75.1383 324° Northwest  Level FlightAware Approximate
01:40AM 6.1545 -75.2211 324° Northwest  Level FlightAware Approximate
01:41AM 6.2662 -75.3039 324° Northwest  Level FlightAware Approximate
01:42AM 6.3698 -75.3820 323° Northwest  Level FlightAware Approximate
01:43AM 6.4807 -75.4659 323° Northwest  Level FlightAware Approximate
01:44AM 6.5917 -75.5498 323° Northwest  Level FlightAware Approximate
01:45AM 6.7026 -75.6338 323° Northwest  Level FlightAware Approximate
01:46AM 6.8134 -75.7178 323° Northwest  Level FlightAware Approximate
01:47AM 6.9243 -75.8019 323° Northwest  Level FlightAware Approximate
01:48AM 7.0352 -75.8859 323° Northwest  Level FlightAware Approximate
01:49AM 7.1460 -75.9701 323° Northwest  Level FlightAware Approximate
01:50AM 7.2569 -76.0543 323° Northwest  Level FlightAware Approximate
01:51AM 7.3677 -76.1385 323° Northwest  Level FlightAware Approximate
01:52AM 7.4785 -76.2227 323° Northwest  Level FlightAware Approximate
01:53AM 7.5893 -76.3070 323° Northwest  Level FlightAware Approximate
01:54AM 7.7001 -76.3913 323° Northwest  Level FlightAware Approximate
01:55AM 7.8115 -76.4748 324° Northwest  Level FlightAware Approximate
01:56AM 7.9231 -76.5580 324° Northwest  Level FlightAware Approximate
01:57AM 8.0347 -76.6413 324° Northwest  Level FlightAware Approximate
01:58AM 8.1463 -76.7246 324° Northwest  Level FlightAware Approximate
01:59AM 8.2579 -76.8079 324° Northwest  Level FlightAware Approximate
02:00AM 8.3557 -76.8810 324° Northwest  Level FlightAware Approximate
02:01AM 8.4535 -76.9541 324° Northwest  Level FlightAware Approximate
02:02AM 8.5513 -77.0272 324° Northwest  Level FlightAware Approximate
02:03AM 8.6490 -77.1004 323° Northwest  Level FlightAware Approximate
02:04AM 8.7468 -77.1736 323° Northwest  Level FlightAware Approximate
02:05AM 8.8445 -77.2469 323° Northwest  Level FlightAware Approximate
02:06AM 8.9422 -77.3202 323° Northwest  Level FlightAware Approximate
02:07AM 9.0399 -77.3935 323° Northwest  Level FlightAware Approximate
02:08AM 9.1376 -77.4669 323° Northwest  Level FlightAware Approximate
02:09AM 9.2352 -77.5403 323° Northwest  Level FlightAware Approximate
02:10AM 9.3329 -77.6138 323° Northwest  Level FlightAware Approximate
02:11AM 9.4305 -77.6873 323° Northwest  Level FlightAware Approximate
02:12AM 9.5281 -77.7608 323° Northwest  Level FlightAware Approximate
02:13AM 9.6257 -77.8344 323° Northwest  Level FlightAware Approximate
02:13AM 8.5210 -78.0790 323° Northwest 456 525 36,000  Level FlightAware
02:13AM 8.5710 -78.1250 318° Northwest 456 525 36,000  Level FlightAware
02:16AM 8.8077 -78.2906 325° Northwest  Level Estimated
02:17AM 8.9077 -78.3607 325° Northwest  Level Estimated
02:18AM 9.0077 -78.4307 325° Northwest  Level Estimated
02:18AM 9.0430 -78.6370 325° Northwest 36,000  Level FlightAware
02:19AM 9.1077 -78.5009 325° Northwest  Level Estimated
02:20AM 9.1390 -78.7630 308° West 467 537 36,000  Level FlightAware
02:20AM 9.1900 -78.8320 307° West 466 536 36,000  Level FlightAware
02:21AM 9.2460 -78.9100 306° West 466 536 36,000  Level FlightAware
02:22AM 9.2980 -78.9820 306° West 468 539 36,000  Level FlightAware
02:22AM 9.3550 -79.0620 306° West 469 540 36,000  Level FlightAware
02:23AM 9.4010 -79.1260 306° West 470 541 36,000  Level FlightAware
02:24AM 9.4580 -79.2070 306° West 467 537 36,000  Level FlightAware
02:24AM 9.5180 -79.2680 315° West 460 529 36,000  Level FlightAware
02:25AM 9.6070 -79.3040 338° Northwest 468 539 36,000  Level FlightAware
02:26AM 9.6940 -79.3050 359° North 468 539 36,000  Level FlightAware
02:27AM 9.7890 -79.3050 360° North 468 539 36,000  Level FlightAware
02:27AM 9.8770 -79.3060 359° North 467 537 36,000  Level FlightAware
02:28AM 9.9670 -79.3070 359° North 466 536 36,000  Level FlightAware
02:29AM 10.0640 -79.3120 357° North 454 522 36,000  Level FlightAware
02:29AM 10.1490 -79.3290 349° North 462 532 36,000  Level FlightAware
02:30AM 10.2410 -79.3600 342° North 452 520 36,000  Level FlightAware
02:31AM 10.3040 -79.4030 326° Northwest 452 520 36,000  Level FlightAware
02:31AM 10.3710 -79.4700 315° West 454 522 36,000  Level FlightAware
02:32AM 10.4420 -79.5400 316° Northwest 456 525 36,000  Level FlightAware
02:33AM 10.5020 -79.6000 315° West 456 525 36,000  Level FlightAware
02:34AM 10.5690 -79.6670 315° West 457 526 36,000  Level FlightAware
02:34AM 10.6240 -79.7220 315° West 457 526 36,000  Level FlightAware
02:35AM 10.6810 -79.7790 316° Northwest 454 522 36,000  Level FlightAware
02:36AM 10.7460 -79.8450 315° West 457 526 36,000  Level FlightAware
02:36AM 10.7970 -79.8970 315° West 457 526 36,000  Level FlightAware
02:37AM 10.8820 -79.9820 316° Northwest 454 522 36,000  Level FlightAware
02:38AM 10.9490 -80.0490 316° Northwest 454 522 36,000  Level FlightAware
02:38AM 11.0080 -80.1090 315° West 454 522 36,000  Level FlightAware
02:39AM 11.0770 -80.1780 316° Northwest 456 525 36,000  Level FlightAware
02:40AM 11.1240 -80.2260 315° West 456 525 36,000  Level FlightAware
02:41AM 11.2030 -80.3060 315° West 456 525 36,000  Level FlightAware
02:41AM 11.2790 -80.3820 316° Northwest 458 527 36,000  Level FlightAware
02:42AM 11.3480 -80.4500 316° Northwest 458 527 36,000  Level FlightAware
02:43AM 11.4110 -80.5140 315° West 459 528 36,000  Level FlightAware
02:44AM 11.4720 -80.5760 315° West 459 528 36,000  Level FlightAware
02:44AM 11.5290 -80.6340 315° West 459 528 36,000  Level FlightAware
02:45AM 11.5750 -80.6810 315° West 459 528 36,000  Level FlightAware
02:46AM 11.6370 -80.7450 315° West 459 528 36,000  Level FlightAware
02:46AM 11.6840 -80.7930 315° West 459 528 36,000  Level FlightAware
02:47AM 11.7330 -80.8420 316° Northwest 459 528 36,000  Level FlightAware
02:48AM 11.7950 -80.9060 315° West 459 528 36,000  Level FlightAware
02:48AM 11.8430 -80.9540 316° Northwest 459 528 36,000  Level FlightAware
02:49AM 11.9050 -81.0180 315° West 459 528 36,000  Level FlightAware
02:50AM 11.9510 -81.0650 315° West 459 528 36,000  Level FlightAware
02:51AM 12.0120 -81.1280 315° West 459 528 36,000  Level FlightAware
02:51AM 12.0580 -81.1750 315° West 459 528 36,000  Level FlightAware
02:52AM 12.1210 -81.2390 315° West 459 528 36,000  Level FlightAware
02:53AM 12.1670 -81.2860 315° West 459 528 36,000  Level FlightAware
02:53AM 12.2280 -81.3490 315° West 459 528 36,000  Level FlightAware
02:56AM 12.4380 -81.4941 326° Northwest  Level Estimated
02:57AM 12.5388 -81.5639 326° Northwest  Level Estimated
02:58AM 12.6395 -81.6336 326° Northwest  Level Estimated
02:59AM 12.7403 -81.7035 326° Northwest  Level Estimated
03:00AM 12.8410 -81.7734 326° Northwest  Level Estimated
03:01AM 12.9417 -81.8434 326° Northwest  Level Estimated
03:02AM 13.0424 -81.9134 326° Northwest  Level Estimated
03:03AM 13.1430 -81.9834 326° Northwest  Level Estimated
03:04AM 13.2437 -82.0536 326° Northwest  Level Estimated
03:05AM 13.3443 -82.1238 326° Northwest  Level Estimated
03:06AM 13.4449 -82.1940 326° Northwest  Level Estimated
03:07AM 13.5455 -82.2643 326° Northwest  Level Estimated
03:08AM 13.6460 -82.3347 326° Northwest  Level Estimated
03:09AM 13.7466 -82.4051 326° Northwest  Level Estimated
03:10AM 13.8471 -82.4756 326° Northwest  Level Estimated
03:11AM 13.9476 -82.5462 326° Northwest  Level Estimated
03:12AM 14.0481 -82.6168 326° Northwest  Level Estimated
03:13AM 14.1485 -82.6874 326° Northwest  Level Estimated
03:14AM 14.2490 -82.7582 326° Northwest  Level Estimated
03:15AM 14.3494 -82.8290 326° Northwest  Level Estimated
03:16AM 14.4498 -82.8998 326° Northwest  Level Estimated
03:17AM 14.5502 -82.9707 326° Northwest  Level Estimated
03:18AM 14.6505 -83.0417 326° Northwest  Level Estimated
03:19AM 14.7509 -83.1128 326° Northwest  Level Estimated
03:20AM 14.8512 -83.1839 326° Northwest  Level Estimated
03:21AM 14.9515 -83.2551 326° Northwest  Level Estimated
03:22AM 15.0517 -83.3263 326° Northwest  Level Estimated
03:23AM 15.1520 -83.3977 326° Northwest  Level Estimated
03:24AM 15.2522 -83.4690 326° Northwest  Level Estimated
03:25AM 15.3524 -83.5405 325° Northwest  Level Estimated
03:26AM 15.4526 -83.6120 325° Northwest  Level Estimated
03:27AM 15.5528 -83.6836 325° Northwest  Level Estimated
03:28AM 15.6529 -83.7553 325° Northwest  Level Estimated
03:29AM 15.7534 -83.8273 325° Northwest  Level Estimated
03:30AM 15.8539 -83.8993 325° Northwest  Level Estimated
03:31AM 15.9543 -83.9715 325° Northwest  Level Estimated
03:32AM 16.0547 -84.0437 325° Northwest  Level Estimated
03:33AM 16.1551 -84.1160 325° Northwest  Level Estimated
03:34AM 16.2555 -84.1883 325° Northwest  Level Estimated
03:35AM 16.3558 -84.2608 325° Northwest  Level Estimated
03:36AM 16.4561 -84.3333 325° Northwest  Level Estimated
03:37AM 16.5564 -84.4059 325° Northwest  Level Estimated
03:38AM 16.6567 -84.4786 325° Northwest  Level Estimated
03:39AM 16.7569 -84.5513 325° Northwest  Level Estimated
03:40AM 16.8571 -84.6241 325° Northwest  Level Estimated
03:41AM 16.9573 -84.6970 325° Northwest  Level Estimated
03:42AM 17.0575 -84.7700 325° Northwest  Level Estimated
03:43AM 17.1576 -84.8430 325° Northwest  Level Estimated
03:44AM 17.2578 -84.9161 325° Northwest  Level Estimated
03:45AM 17.3578 -84.9893 325° Northwest  Level Estimated
03:46AM 17.4579 -85.0626 325° Northwest  Level Estimated
03:47AM 17.5579 -85.1360 325° Northwest  Level Estimated
03:48AM 17.6579 -85.2095 325° Northwest  Level Estimated
03:49AM 17.7579 -85.2830 325° Northwest  Level Estimated
03:50AM 17.8579 -85.3566 325° Northwest  Level Estimated
03:51AM 17.9578 -85.4303 325° Northwest  Level Estimated
03:52AM 18.0577 -85.5041 325° Northwest  Level Estimated
03:53AM 18.1576 -85.5779 325° Northwest  Level Estimated
03:54AM 18.2574 -85.6519 325° Northwest  Level Estimated
03:55AM 18.3572 -85.7259 325° Northwest  Level Estimated
03:56AM 18.4570 -85.8000 325° Northwest  Level Estimated
03:57AM 18.5567 -85.8742 325° Northwest  Level Estimated
03:58AM 18.6565 -85.9485 325° Northwest  Level Estimated
03:59AM 18.7562 -86.0229 325° Northwest  Level Estimated
04:00AM 18.8559 -86.0974 325° Northwest  Level Estimated
04:01AM 18.9555 -86.1719 325° Northwest  Level Estimated
04:02AM 19.0551 -86.2466 325° Northwest  Level Estimated
04:03AM 19.1547 -86.3213 325° Northwest  Level Estimated
04:04AM 19.2542 -86.3961 325° Northwest  Level Estimated
04:05AM 19.3538 -86.4710 325° Northwest  Level Estimated
04:05AM 19.9220 -86.5590 325° Northwest 456 525 36,000  Level FlightAware
04:06AM 19.4532 -86.5460 325° Northwest  Level Estimated
04:06AM 20.0300 -86.6350 327° Northwest 455 524 36,000  Level FlightAware
04:07AM 20.0830 -86.6730 326° Northwest 455 524 36,000  Level FlightAware
04:08AM 20.1820 -86.7400 328° Northwest 454 522 36,000  Level FlightAware
04:08AM 20.2530 -86.7890 327° Northwest 452 520 36,000  Level FlightAware
04:09AM 20.3510 -86.8570 327° Northwest 452 520 36,000  Level FlightAware
04:10AM 20.4200 -86.9050 327° Northwest 451 519 36,000  Level FlightAware
04:11AM 20.4880 -86.9520 327° Northwest 451 519 36,000  Level FlightAware
04:11AM 20.5610 -87.0040 326° Northwest 450 518 36,000  Level FlightAware
04:12AM 20.6490 -87.0650 327° Northwest 449 517 36,000  Level FlightAware
04:13AM 20.7130 -87.1090 327° Northwest 450 518 36,000  Level FlightAware
04:13AM 20.7850 -87.1600 326° Northwest 451 519 36,000  Level FlightAware
04:14AM 20.8670 -87.2180 327° Northwest 449 517 36,000  Level FlightAware
04:15AM 20.9540 -87.2790 327° Northwest 447 514 36,000  Level FlightAware
04:16AM 21.0580 -87.3520 327° Northwest 446 513 36,000  Level FlightAware
04:17AM 21.1170 -87.3950 326° Northwest 446 513 36,000  Level FlightAware
04:17AM 21.2040 -87.4550 327° Northwest 446 513 36,000  Level FlightAware
04:19AM 21.3120 -87.5320 326° Northwest 447 514 36,000  Level FlightAware
04:19AM 21.3890 -87.5860 327° Northwest 450 518 36,000  Level FlightAware
04:20AM 21.5050 -87.6690 326° Northwest 451 519 36,000  Level FlightAware
04:21AM 21.5860 -87.7260 327° Northwest 450 518 36,000  Level FlightAware
04:22AM 21.6940 -87.8020 327° Northwest 451 519 36,000  Level FlightAware
04:23AM 21.7650 -87.8540 326° Northwest 451 519 36,000  Level FlightAware
04:24AM 21.7840 -87.8670 328° Northwest 451 519 36,000  Level FlightAware
04:24AM 21.8610 -87.9210 327° Northwest 450 518 36,000  Level FlightAware
04:25AM 21.9440 -87.9810 326° Northwest 450 518 36,000  Level FlightAware
04:26AM 22.0110 -88.0290 326° Northwest 449 517 36,000  Level FlightAware
04:26AM 22.0500 -88.0570 326° Northwest 449 517 36,000  Level FlightAware
04:27AM 22.1440 -88.1240 327° Northwest 449 517 36,000  Level FlightAware
04:28AM 22.2410 -88.1940 326° Northwest 449 517 36,000  Level FlightAware
04:29AM 22.3100 -88.2430 327° Northwest 449 517 36,000  Level FlightAware
04:29AM 22.3790 -88.2930 326° Northwest 449 517 36,000  Level FlightAware
04:30AM 22.4460 -88.3410 326° Northwest 448 516 36,000  Level FlightAware
04:31AM 22.5280 -88.4000 326° Northwest 447 514 36,000  Level FlightAware
04:32AM 22.5860 -88.4430 326° Northwest 447 514 36,000  Level FlightAware
04:32AM 22.6540 -88.4920 326° Northwest 449 517 36,000  Level FlightAware
04:33AM 22.7280 -88.5450 327° Northwest 449 517 36,000  Level FlightAware
04:34AM 22.8170 -88.6100 326° Northwest 451 519 36,000  Level FlightAware
04:34AM 22.8730 -88.6510 326° Northwest 451 519 36,000  Level FlightAware
04:35AM 22.9540 -88.7100 326° Northwest 452 520 36,000  Level FlightAware
04:36AM 23.0180 -88.7560 327° Northwest 452 520 36,000  Level FlightAware
04:36AM 23.0770 -88.7990 326° Northwest 453 521 36,000  Level FlightAware
04:37AM 23.1580 -88.8580 326° Northwest 453 521 36,000  Level FlightAware
04:38AM 23.2520 -88.9270 326° Northwest 453 521 36,000  Level FlightAware
04:39AM 23.3160 -88.9740 326° Northwest 452 520 36,000  Level FlightAware
04:39AM 23.3810 -89.0210 326° Northwest 451 519 36,000  Level FlightAware
04:40AM 23.4620 -89.0810 326° Northwest 449 517 36,000  Level FlightAware
04:41AM 23.5400 -89.1380 326° Northwest 446 513 36,000  Level FlightAware
04:42AM 23.6150 -89.1930 326° Northwest 445 512 36,000  Level FlightAware
04:42AM 23.6710 -89.2350 326° Northwest 445 512 36,000  Level FlightAware
04:43AM 23.7140 -89.2660 327° Northwest 445 512 36,000  Level FlightAware
04:44AM 23.7960 -89.3280 325° Northwest 446 513 36,000  Level FlightAware
04:45AM 23.8480 -89.3680 325° Northwest 446 513 36,000  Level FlightAware
04:45AM 23.9140 -89.4180 325° Northwest 446 513 36,000  Level FlightAware
04:46AM 23.9800 -89.4690 325° Northwest 446 513 36,000  Level FlightAware
04:47AM 24.0290 -89.5060 325° Northwest 446 513 36,000  Level FlightAware
04:48AM 24.0980 -89.5590 325° Northwest 446 513 36,000  Level FlightAware
04:48AM 24.1500 -89.5990 325° Northwest 446 513 36,000  Level FlightAware
04:49AM 24.2200 -89.6530 325° Northwest 446 513 36,000  Level FlightAware
04:50AM 24.2730 -89.6940 325° Northwest 446 513 36,000  Level FlightAware
04:50AM 24.3420 -89.7470 325° Northwest 446 513 36,000  Level FlightAware
04:51AM 24.3950 -89.7880 325° Northwest 446 513 36,000  Level FlightAware
04:52AM 24.4490 -89.8280 326° Northwest 446 513 36,000  Level FlightAware
04:52AM 24.5170 -89.8820 324° Northwest 446 513 36,000  Level FlightAware
04:53AM 24.6040 -89.9480 325° Northwest 446 513 36,000  Level FlightAware
04:56AM 24.8190 -90.1098 326° Northwest  Level FlightAware Approximate
04:57AM 24.9196 -90.1859 326° Northwest  Level FlightAware Approximate
04:58AM 25.0203 -90.2621 326° Northwest  Level FlightAware Approximate
04:59AM 25.1206 -90.3381 326° Northwest  Level FlightAware Approximate
05:00AM 25.2208 -90.4143 325° Northwest  Level FlightAware Approximate
05:01AM 25.3209 -90.4905 325° Northwest  Level FlightAware Approximate
05:02AM 25.4208 -90.5674 325° Northwest  Level FlightAware Approximate
05:03AM 25.5205 -90.6444 325° Northwest  Level FlightAware Approximate
05:04AM 25.6203 -90.7215 325° Northwest  Level FlightAware Approximate
05:05AM 25.7200 -90.7988 325° Northwest  Level FlightAware Approximate
05:06AM 25.8196 -90.8762 325° Northwest  Level FlightAware Approximate
05:07AM 25.9193 -90.9537 325° Northwest  Level FlightAware Approximate
05:08AM 26.0190 -91.0311 326° Northwest  Level FlightAware Approximate
05:09AM 26.1194 -91.1075 326° Northwest  Level FlightAware Approximate
05:10AM 26.2198 -91.1839 326° Northwest  Level FlightAware Approximate
05:11AM 26.3202 -91.2606 326° Northwest  Level FlightAware Approximate
05:12AM 26.4198 -91.3384 325° Northwest  Level FlightAware Approximate
05:13AM 26.5191 -91.4169 325° Northwest  Level FlightAware Approximate
05:14AM 26.6183 -91.4956 325° Northwest  Level FlightAware Approximate
05:14AM 27.1024 -91.9258 325° Northwest 456 525 36,000  Level FlightAware ADS-B
05:15AM 27.1364 -91.9608 325° Northwest 455 524 36,000  Level Houston Center
05:21AM 27.6981 -92.5429 325° Northwest 462 532 36,000  Level FlightAware ADS-B
05:21AM 27.7467 -92.5937 317° Northwest 463 533 36,000  Level FlightAware ADS-B
05:22AM 27.8129 -92.6628 317° Northwest 463 533 36,000  Level FlightAware ADS-B
05:23AM 27.8643 -92.7164 317° Northwest 465 535 36,000  Level FlightAware ADS-B
05:23AM 27.8878 -92.7428 317° Northwest 462 532 36,000  Level Houston Center
05:24AM 27.9839 -92.8411 318° Northwest 465 535 36,000 -60 Level Houston Center
05:25AM 28.0781 -92.9439 316° Northwest 468 539 35,900 -60 Descending Houston Center
05:26AM 28.1736 -93.0444 317° Northwest 470 541 35,900  Level Houston Center
05:27AM 28.2700 -93.1458 317° Northwest 472 543 35,900  Level Houston Center
05:28AM 28.3692 -93.2492 317° Northwest 473 544 36,000  Climbing Houston Center
05:29AM 28.4628 -93.3503 316° Northwest 468 539 36,000  Level Houston Center
05:30AM 28.5575 -93.4508 317° Northwest 466 536 36,000 -1,740 Level Houston Center
05:35AM 29.0570 -93.9870 317° Northwest 462 532 25,500 -1,800 Descending FlightAware
05:36AM 29.1210 -94.0580 316° Northwest 462 532 25,500 -2,760 Level FlightAware
05:37AM 29.1954 -94.1372 317° Northwest 435 501 21,300 -4,560 Descending FlightAware ADS-B
05:37AM 29.2393 -94.1850 316° Northwest 427 491 20,000 -2,700 Descending FlightAware ADS-B
05:38AM 29.2823 -94.2316 317° Northwest 419 482 18,600 -2,700 Descending FlightAware ADS-B
05:38AM 29.3242 -94.2773 316° Northwest 413 475 17,300 -2,700 Descending FlightAware ADS-B
05:39AM 29.3657 -94.3225 316° Northwest 405 466 15,900 -2,700 Descending FlightAware ADS-B
05:39AM 29.4061 -94.3667 316° Northwest 397 457 14,600 -2,700 Descending FlightAware ADS-B
05:40AM 29.4458 -94.4103 316° Northwest 390 449 13,200 -2,700 Descending FlightAware ADS-B
05:40AM 29.4849 -94.4531 316° Northwest 383 441 11,900 -2,280 Descending FlightAware ADS-B
05:41AM 29.5235 -94.4954 316° Northwest 371 427 10,900 -1,380 Descending FlightAware ADS-B
05:41AM 29.5594 -94.5348 316° Northwest 340 391 10,500 -720 Descending FlightAware ADS-B
05:42AM 29.5925 -94.5714 316° Northwest 315 362 10,200 -660 Descending FlightAware ADS-B
05:42AM 29.6083 -94.5890 316° Northwest 306 352 10,000 -1,020 Descending FlightAware ADS-B
05:42AM 29.6238 -94.6061 316° Northwest 301 346 9,700 -1,200 Descending FlightAware ADS-B
05:42AM 29.6387 -94.6224 316° Northwest 294 338 9,400 -1,200 Descending FlightAware ADS-B
05:43AM 29.6536 -94.6387 316° Northwest 291 335 9,100 -1,560 Descending FlightAware ADS-B
05:43AM 29.6687 -94.6550 317° Northwest 290 334 8,600 -1,800 Descending FlightAware ADS-B
05:43AM 29.6835 -94.6710 317° Northwest 290 334 8,200 -1,620 Descending FlightAware ADS-B
05:43AM 29.6982 -94.6871 316° Northwest 289 333 7,800 -1,620 Descending FlightAware ADS-B
05:44AM 29.7127 -94.7032 316° Northwest 290 334 7,400 -1,800 Descending FlightAware ADS-B
05:44AM 29.7272 -94.7192 316° Northwest 289 333 6,900 -1,620 Descending FlightAware ADS-B
05:44AM 29.7416 -94.7354 316° Northwest 287 330 6,600 -1,440 Descending FlightAware ADS-B
05:44AM 29.7561 -94.7516 316° Northwest 284 327 6,200 -1,560 Descending FlightAware ADS-B
05:45AM 29.7706 -94.7676 316° Northwest 283 326 5,800 -1,380 Descending FlightAware ADS-B
05:45AM 29.7851 -94.7836 316° Northwest 281 323 5,500 -1,440 Descending FlightAware ADS-B
05:45AM 29.7994 -94.7996 316° Northwest 279 321 5,100 -1,440 Descending FlightAware ADS-B
05:46AM 29.8129 -94.8148 316° Northwest 277 319 4,800 -1,440 Descending FlightAware ADS-B
05:46AM 29.8267 -94.8301 316° Northwest 274 315 4,400 -1,440 Descending FlightAware ADS-B
05:46AM 29.8405 -94.8453 316° Northwest 273 314 4,100 -1,320 Descending FlightAware ADS-B
05:46AM 29.8438 -94.8491 315° West 273 314 4,000 -900 Descending FlightAware ADS-B
05:46AM 29.8463 -94.8524 311° West 272 313 4,000  Level FlightAware ADS-B
05:46AM 29.8487 -94.8560 308° West 271 312 4,000  Level FlightAware ADS-B
05:46AM 29.8509 -94.8596 305° West 270 311 4,000  Level FlightAware ADS-B
05:46AM 29.8528 -94.8631 302° West 269 310 4,000 -780 Level FlightAware ADS-B
05:46AM 29.8558 -94.8690 300° West 268 308 3,900 -720 Descending FlightAware ADS-B
05:46AM 29.8581 -94.8744 296° West 267 307 3,900 720 Level FlightAware ADS-B
05:46AM 29.8600 -94.8793 294° West 266 306 4,000 300 Climbing FlightAware ADS-B
05:47AM 29.8668 -94.8995 291° West 264 304 4,000  Level FlightAware ADS-B
05:47AM 29.8730 -94.9176 292° West 263 303 4,000  Level FlightAware ADS-B
05:47AM 29.8850 -94.9524 292° West 249 287 4,000  Level FlightAware ADS-B
05:48AM 29.8916 -94.9712 292° West 248 285 4,000  Level FlightAware ADS-B
05:48AM 29.8981 -94.9900 292° West 248 285 4,000  Level FlightAware ADS-B
05:48AM 29.9113 -95.0279 292° West 249 287 4,000  Level FlightAware ADS-B
05:49AM 29.9177 -95.0466 292° West 248 285 4,000 -240 Level FlightAware ADS-B
05:49AM 29.9238 -95.0643 292° West 250 288 3,900 -540 Descending FlightAware ADS-B
05:49AM 29.9370 -95.1010 293° West 236 272 3,600 -540 Descending FlightAware ADS-B
05:50AM 29.9429 -95.1167 293° West 219 252 3,500 -1,080 Descending FlightAware ADS-B
05:50AM 29.9489 -95.1326 294° West 207 238 3,100 -1,320 Descending FlightAware ADS-B
05:51AM 29.9639 -95.1716 294° West 179 206 2,300 -1,200 Descending FlightAware ADS-B
05:51AM 29.9671 -95.1804 293° West 176 203 2,100 -900 Descending FlightAware ADS-B
05:51AM 29.9697 -95.1888 290° West 173 199 2,000 -1,020 Descending FlightAware ADS-B
05:51AM 29.9717 -95.1958 288° West 170 196 1,800 -1,020 Descending FlightAware ADS-B
05:51AM 29.9748 -95.2096 285° West 167 192 1,600 -840 Descending FlightAware ADS-B
05:52AM 29.9770 -95.2218 282° West 160 184 1,400 -900 Descending FlightAware ADS-B
05:52AM 29.9775 -95.2270 276° West 156 180 1,300 -840 Descending FlightAware ADS-B
05:52AM 29.9779 -95.2395 272° West 151 174 1,100 -780 Descending FlightAware ADS-B
05:52AM 29.9780 -95.2462 271° West 149 171 1,000 -780 Descending FlightAware ADS-B
05:52AM 29.9780 -95.2526 270° West 150 173 900 -840 Descending FlightAware ADS-B
05:53AM 29.9778 -95.2649 269° West 151 174 700 -780 Descending FlightAware ADS-B
05:53AM 29.9776 -95.2772 269° West 151 174 500 -840 Descending FlightAware ADS-B
05:53AM 29.9775 -95.2819 269° West 151 174 400 -960 Descending FlightAware ADS-B
05:53AM 29.9776 -95.2878 271° West 151 174 300 -840 Descending FlightAware ADS-B
05:53AM 29.9776 -95.3004 270° West 152 175 100 -780 Descending FlightAware ADS-B